Orenburg, Russia
Current Conditions -  °F | °C
As of 1:30 AM on Tuesday 27 Jan 2015 (Local Time) from UWOO Reporting Station
Scattered Clouds Scattered Clouds  
Wind Chill: -29°   Ceiling: Unl
Heat Index: -17°   Visibility: 3mi
Dew Point: -22°   Wind: 4mph
Humidity: 76%   Direction: 60°ENE
Pressure: 30.77"   Gusts: NA
Location:  51.78°N, 55.1°E
Report Text: UWOO 262030Z 06002MPS P5000 SCT240 M27/M30 Q1042 08810353 NOSIGRMK QFE771/1028
Loading
Personal Weather Stations






























Interactive Weather Map New forecast layout! Learn more

10-Day Weather Forecast

Advertisements
Track Severe Weather on mobile